Time;durP1;ratioP1;P1;durP2;ratioP2;P2;SDS_P1;SDS_P2;PMS_P1;PMS_P2;Temp;Humidity;BMP_temperature;BMP_pressure;BME280_temperature;BME280_humidity;BME280_pressure;Samples;Min_cycle;Max_cycle;Signal;HPM_P1;HPM_P2
2023/09/02 00:00:32;;;;;;;8.90;3.85;;;;;;;;;;5073847;28;20207;-44
2023/09/02 00:03:19;;;;;;;8.57;3.78;;;;;;;;;;5073913;28;20205;-46
2023/09/02 00:05:47;;;;;;;8.35;3.95;;;;;;;;;;5073587;28;20740;-48
2023/09/02 00:08:14;;;;;;;8.27;3.78;;;;;;;;;;5073824;28;20249;-43
2023/09/02 00:10:41;;;;;;;8.48;3.83;;;;;;;;;;5073736;28;20249;-45
2023/09/02 00:13:09;;;;;;;10.65;4.25;;;;;;;;;;5073790;28;20209;-44
2023/09/02 00:15:36;;;;;;;9.40;4.05;;;;;;;;;;5073765;28;20230;-44
2023/09/02 00:18:03;;;;;;;7.65;3.72;;;;;;;;;;5073377;28;20253;-44
2023/09/02 00:20:31;;;;;;;5.43;3.13;;;;;;;;;;5074035;28;20199;-45
2023/09/02 00:22:58;;;;;;;8.45;3.90;;;;;;;;;;5073417;28;20206;-44
2023/09/02 00:25:26;;;;;;;12.70;4.55;;;;;;;;;;5073435;28;20664;-45
2023/09/02 00:27:53;;;;;;;7.68;4.35;;;;;;;;;;5073307;28;20229;-44
2023/09/02 00:30:21;;;;;;;10.15;4.07;;;;;;;;;;5073287;28;20659;-44
2023/09/02 00:32:48;;;;;;;6.80;3.72;;;;;;;;;;5073560;28;20203;-44
2023/09/02 00:35:15;;;;;;;7.90;3.70;;;;;;;;;;5073547;28;20230;-44
2023/09/02 00:37:43;;;;;;;7.45;3.72;;;;;;;;;;5073353;28;20286;-45
2023/09/02 00:40:13;;;;;;;11.68;4.05;;;;;;;;;;5073595;28;20199;-47
2023/09/02 00:42:41;;;;;;;10.35;4.40;;;;;;;;;;5073140;28;20664;-46
2023/09/02 00:45:09;;;;;;;9.43;4.35;;;;;;;;;;5076079;28;20203;-46
2023/09/02 00:47:36;;;;;;;7.18;3.78;;;;;;;;;;5076274;28;20234;-44
2023/09/02 00:50:04;;;;;;;10.48;4.25;;;;;;;;;;5077537;28;20199;-44
2023/09/02 00:52:32;;;;;;;9.15;4.65;;;;;;;;;;5077262;28;20571;-44
2023/09/02 00:55:01;;;;;;;10.00;4.60;;;;;;;;;;5077109;28;20253;-44
2023/09/02 00:57:28;;;;;;;14.65;4.32;;;;;;;;;;5077118;28;20207;-46
2023/09/02 00:59:56;;;;;;;9.27;4.10;;;;;;;;;;5076180;28;20218;-44
2023/09/02 01:02:24;;;;;;;12.77;4.20;;;;;;;;;;5075905;28;20647;-47
2023/09/02 01:04:51;;;;;;;14.25;4.40;;;;;;;;;;5076990;28;20237;-44
2023/09/02 01:07:18;;;;;;;8.52;4.38;;;;;;;;;;5075877;28;20352;-47
2023/09/02 01:09:46;;;;;;;8.55;4.50;;;;;;;;;;5075840;28;20211;-44
2023/09/02 01:12:14;;;;;;;10.10;4.60;;;;;;;;;;5075755;28;20721;-45
2023/09/02 01:14:41;;;;;;;13.93;4.57;;;;;;;;;;5077018;28;20203;-45
2023/09/02 01:17:08;;;;;;;9.48;4.38;;;;;;;;;;5075756;28;20207;-44
2023/09/02 01:19:36;;;;;;;8.50;4.78;;;;;;;;;;5075621;28;20207;-44
2023/09/02 01:22:26;;;;;;;8.35;4.40;;;;;;;;;;5058916;28;20651;-46
2023/09/02 01:25:11;;;;;;;9.27;4.30;;;;;;;;;;5075335;28;20238;-46
2023/09/02 01:27:52;;;;;;;8.93;4.45;;;;;;;;;;5076802;28;20225;-44
2023/09/02 01:30:21;;;;;;;7.63;4.35;;;;;;;;;;5075541;28;20198;-44
2023/09/02 01:32:52;;;;;;;8.32;4.22;;;;;;;;;;5058824;28;20208;-44
2023/09/02 01:35:28;;;;;;;8.80;4.72;;;;;;;;;;5075515;28;20210;-44
2023/09/02 01:37:56;;;;;;;9.40;4.75;;;;;;;;;;5075605;28;20191;-44
2023/09/02 01:40:25;;;;;;;10.60;4.55;;;;;;;;;;5075052;28;20207;-45
2023/09/02 01:42:57;;;;;;;9.65;4.80;;;;;;;;;;5075143;28;20275;-46
2023/09/02 01:45:27;;;;;;;8.23;4.18;;;;;;;;;;5076268;28;20261;-47
2023/09/02 01:47:55;;;;;;;9.40;4.63;;;;;;;;;;5076375;28;20226;-44
2023/09/02 01:50:26;;;;;;;10.38;4.10;;;;;;;;;;5074903;28;20210;-44
2023/09/02 01:52:55;;;;;;;9.15;4.35;;;;;;;;;;5074954;28;20200;-44
2023/09/02 01:55:23;;;;;;;10.95;4.97;;;;;;;;;;5073794;28;20769;-45
2023/09/02 01:57:51;;;;;;;8.77;4.15;;;;;;;;;;5074841;28;20203;-45
2023/09/02 02:00:18;;;;;;;8.15;4.45;;;;;;;;;;5058610;28;20203;-45
2023/09/02 02:02:49;;;;;;;10.05;4.20;;;;;;;;;;5074949;28;20269;-44
2023/09/02 02:05:18;;;;;;;6.95;3.83;;;;;;;;;;5074769;28;20652;-44
2023/09/02 02:07:47;;;;;;;9.50;3.90;;;;;;;;;;5074815;28;20250;-45
2023/09/02 02:10:16;;;;;;;9.02;4.38;;;;;;;;;;5074663;28;20203;-46
2023/09/02 02:12:44;;;;;;;9.15;4.05;;;;;;;;;;5058072;28;20199;-46
2023/09/02 02:15:11;;;;;;;12.02;4.03;;;;;;;;;;5058392;28;20211;-47
2023/09/02 02:17:39;;;;;;;7.90;4.38;;;;;;;;;;5075678;28;20207;-46
2023/09/02 02:20:11;;;;;;;8.32;4.38;;;;;;;;;;5075757;28;20211;-46
2023/09/02 02:22:38;;;;;;;11.68;4.05;;;;;;;;;;5074755;28;20548;-44
2023/09/02 02:25:05;;;;;;;7.03;3.65;;;;;;;;;;5074104;28;20240;-44
2023/09/02 02:27:32;;;;;;;5.90;3.83;;;;;;;;;;5075641;28;20230;-46
2023/09/02 02:30:00;;;;;;;7.38;3.92;;;;;;;;;;5075586;28;20207;-44
2023/09/02 02:32:27;;;;;;;8.30;4.57;;;;;;;;;;5074352;28;20264;-46
2023/09/02 02:34:54;;;;;;;9.52;4.07;;;;;;;;;;5075409;28;20203;-46
2023/09/02 02:37:21;;;;;;;8.13;4.03;;;;;;;;;;5075176;28;20603;-45
2023/09/02 02:39:49;;;;;;;10.27;4.30;;;;;;;;;;5075289;28;20656;-45
2023/09/02 02:42:18;;;;;;;7.53;3.33;;;;;;;;;;5074238;28;20203;-46
2023/09/02 02:44:45;;;;;;;7.15;3.75;;;;;;;;;;5075766;28;20199;-44
2023/09/02 02:47:12;;;;;;;8.20;4.03;;;;;;;;;;5075219;28;20263;-46
2023/09/02 02:49:40;;;;;;;8.48;4.10;;;;;;;;;;5075165;28;20207;-44
2023/09/02 02:52:07;;;;;;;9.40;4.57;;;;;;;;;;5074918;28;20192;-44
2023/09/02 02:54:37;;;;;;;7.93;3.60;;;;;;;;;;5073971;28;20261;-45
2023/09/02 02:57:04;;;;;;;8.07;3.83;;;;;;;;;;5073887;28;20205;-50
2023/09/02 02:59:32;;;;;;;8.90;3.90;;;;;;;;;;5073886;28;20233;-45
2023/09/02 03:01:59;;;;;;;6.75;3.65;;;;;;;;;;5074786;28;20552;-46
2023/09/02 03:04:28;;;;;;;8.52;3.70;;;;;;;;;;5073414;28;20210;-45
2023/09/02 03:06:55;;;;;;;11.38;5.05;;;;;;;;;;5074462;28;20199;-44
2023/09/02 03:09:22;;;;;;;9.43;4.32;;;;;;;;;;5073591;28;20607;-46
2023/09/02 03:11:51;;;;;;;9.68;4.10;;;;;;;;;;5073756;28;20222;-44
2023/09/02 03:14:18;;;;;;;11.00;4.10;;;;;;;;;;5073368;28;20199;-44
2023/09/02 03:16:45;;;;;;;8.85;4.00;;;;;;;;;;5073081;28;20774;-46
2023/09/02 03:19:13;;;;;;;10.18;4.22;;;;;;;;;;5072980;28;20207;-46
2023/09/02 03:21:40;;;;;;;8.50;4.10;;;;;;;;;;5073081;28;20283;-45
2023/09/02 03:24:08;;;;;;;7.65;4.30;;;;;;;;;;5070924;28;20243;-45
2023/09/02 03:26:35;;;;;;;10.75;4.72;;;;;;;;;;5071145;28;20227;-45
2023/09/02 03:29:02;;;;;;;9.73;4.55;;;;;;;;;;5071445;28;20261;-45
2023/09/02 03:31:33;;;;;;;10.10;4.78;;;;;;;;;;5071143;28;20196;-49
2023/09/02 03:34:02;;;;;;;11.13;4.75;;;;;;;;;;5071860;28;20195;-46
2023/09/02 03:36:31;;;;;;;9.35;4.60;;;;;;;;;;5071807;28;20203;-45
2023/09/02 03:38:58;;;;;;;9.30;4.50;;;;;;;;;;5073147;28;20576;-46
2023/09/02 03:41:26;;;;;;;12.93;4.47;;;;;;;;;;5072738;28;20210;-44
2023/09/02 03:43:54;;;;;;;8.52;4.65;;;;;;;;;;5074137;28;20269;-48
2023/09/02 03:46:24;;;;;;;7.75;4.57;;;;;;;;;;5072691;28;20202;-44
2023/09/02 03:48:53;;;;;;;11.10;4.40;;;;;;;;;;5072641;28;20236;-47
2023/09/02 03:51:23;;;;;;;7.10;4.32;;;;;;;;;;5072751;28;20514;-47
2023/09/02 03:53:54;;;;;;;8.32;5.03;;;;;;;;;;5072442;28;20595;-44
2023/09/02 03:56:21;;;;;;;7.40;4.65;;;;;;;;;;5072327;28;20612;-44
2023/09/02 03:58:49;;;;;;;10.82;4.72;;;;;;;;;;5072252;28;20215;-45
2023/09/02 04:01:17;;;;;;;11.07;4.95;;;;;;;;;;5072213;28;20215;-46
2023/09/02 04:03:45;;;;;;;9.00;5.13;;;;;;;;;;5073594;28;20284;-45
2023/09/02 04:06:13;;;;;;;9.57;5.00;;;;;;;;;;5072470;28;20249;-46
2023/09/02 04:08:41;;;;;;;6.72;4.60;;;;;;;;;;5072088;28;20771;-44
2023/09/02 04:11:08;;;;;;;10.85;5.18;;;;;;;;;;5072123;28;20218;-44
2023/09/02 04:13:35;;;;;;;9.57;4.97;;;;;;;;;;5072120;28;20732;-44
2023/09/02 04:16:08;;;;;;;10.77;5.13;;;;;;;;;;5072079;28;20667;-46
2023/09/02 04:18:36;;;;;;;8.70;4.63;;;;;;;;;;5072000;28;20203;-45
2023/09/02 04:21:04;;;;;;;7.65;4.97;;;;;;;;;;5072396;28;20207;-47
2023/09/02 04:23:33;;;;;;;6.85;4.97;;;;;;;;;;5072308;28;20289;-45
2023/09/02 04:26:05;;;;;;;11.25;5.60;;;;;;;;;;5072716;28;20215;-45
2023/09/02 04:28:32;;;;;;;12.10;5.00;;;;;;;;;;5073301;28;20219;-45
2023/09/02 04:31:00;;;;;;;11.70;5.20;;;;;;;;;;5072438;28;20721;-44
2023/09/02 04:33:31;;;;;;;7.95;5.20;;;;;;;;;;5072400;28;20207;-44
2023/09/02 04:36:00;;;;;;;9.23;5.05;;;;;;;;;;5072347;28;20203;-45
2023/09/02 04:38:29;;;;;;;9.45;4.93;;;;;;;;;;5072278;28;20192;-44
2023/09/02 04:41:01;;;;;;;8.50;4.63;;;;;;;;;;5073158;28;20237;-44
2023/09/02 04:43:28;;;;;;;13.57;5.20;;;;;;;;;;5072201;28;20210;-43
2023/09/02 04:46:00;;;;;;;9.93;4.65;;;;;;;;;;5054628;28;20202;-45
2023/09/02 04:48:28;;;;;;;12.00;5.10;;;;;;;;;;5073099;28;20272;-44
2023/09/02 04:50:56;;;;;;;8.43;5.05;;;;;;;;;;5071003;28;20203;-44
2023/09/02 04:53:25;;;;;;;8.88;4.80;;;;;;;;;;5071473;28;20264;-44
2023/09/02 04:55:52;;;;;;;8.30;4.68;;;;;;;;;;5073022;28;20203;-44
2023/09/02 04:58:23;;;;;;;9.68;5.03;;;;;;;;;;5071811;28;20664;-44
2023/09/02 05:00:52;;;;;;;7.30;4.55;;;;;;;;;;5071866;28;20652;-44
2023/09/02 05:03:20;;;;;;;11.10;4.90;;;;;;;;;;5071755;28;20199;-44
2023/09/02 05:05:48;;;;;;;8.20;4.75;;;;;;;;;;5072009;28;20277;-49
2023/09/02 05:08:18;;;;;;;9.20;5.25;;;;;;;;;;5089599;28;20266;-44
2023/09/02 05:10:45;;;;;;;9.95;5.55;;;;;;;;;;5092239;28;20194;-45
2023/09/02 05:13:12;;;;;;;7.03;4.90;;;;;;;;;;5093498;28;20191;-44
2023/09/02 05:15:39;;;;;;;16.23;5.53;;;;;;;;;;5091983;28;20198;-45
2023/09/02 05:18:08;;;;;;;13.82;5.05;;;;;;;;;;5092071;28;20199;-45
2023/09/02 05:20:40;;;;;;;8.60;5.00;;;;;;;;;;5091885;28;20659;-45
2023/09/02 05:23:08;;;;;;;9.30;4.90;;;;;;;;;;5092013;28;20191;-51
2023/09/02 05:25:35;;;;;;;8.68;4.78;;;;;;;;;;5091992;28;20202;-44
2023/09/02 05:28:03;;;;;;;10.75;5.45;;;;;;;;;;5092833;28;20655;-46
2023/09/02 05:30:31;;;;;;;9.00;5.03;;;;;;;;;;5096710;28;20635;-45
2023/09/02 05:32:59;;;;;;;9.63;5.10;;;;;;;;;;5096676;28;20206;-45
2023/09/02 05:35:26;;;;;;;7.15;4.47;;;;;;;;;;5095835;28;20195;-46
2023/09/02 05:37:53;;;;;;;9.40;5.47;;;;;;;;;;5096826;28;20225;-46
2023/09/02 05:40:20;;;;;;;11.75;4.63;;;;;;;;;;5096946;28;20233;-47
2023/09/02 05:42:47;;;;;;;9.00;5.15;;;;;;;;;;5096495;28;20683;-44
2023/09/02 05:45:14;;;;;;;7.85;4.75;;;;;;;;;;5096361;28;20230;-44
2023/09/02 05:47:42;;;;;;;8.40;4.85;;;;;;;;;;5096380;28;20203;-45
2023/09/02 05:50:09;;;;;;;7.80;4.60;;;;;;;;;;5096706;28;20314;-45
2023/09/02 05:52:36;;;;;;;8.23;5.03;;;;;;;;;;5096579;28;20202;-48
2023/09/02 05:55:04;;;;;;;11.43;4.75;;;;;;;;;;5096422;28;20195;-45
2023/09/02 05:57:32;;;;;;;12.20;4.93;;;;;;;;;;5096182;28;20723;-45
2023/09/02 05:59:59;;;;;;;8.25;4.60;;;;;;;;;;5096796;28;20207;-44
2023/09/02 06:02:27;;;;;;;8.25;4.80;;;;;;;;;;5096232;28;20199;-45
2023/09/02 06:04:54;;;;;;;7.75;4.63;;;;;;;;;;5096480;28;20198;-46
2023/09/02 06:07:22;;;;;;;8.15;4.90;;;;;;;;;;5096398;28;20206;-44
2023/09/02 06:09:49;;;;;;;11.52;4.93;;;;;;;;;;5095976;28;20682;-45
2023/09/02 06:12:16;;;;;;;8.43;5.57;;;;;;;;;;5094796;28;20199;-45
2023/09/02 06:14:43;;;;;;;11.40;5.47;;;;;;;;;;5094781;28;20203;-44
2023/09/02 06:17:10;;;;;;;11.55;5.28;;;;;;;;;;5096096;28;20279;-45
2023/09/02 06:19:37;;;;;;;8.75;5.20;;;;;;;;;;5095793;28;20284;-44
2023/09/02 06:22:05;;;;;;;9.18;5.18;;;;;;;;;;5089508;28;20195;-46
2023/09/02 06:24:32;;;;;;;7.95;4.88;;;;;;;;;;5083588;28;20234;-46
2023/09/02 06:27:03;;;;;;;12.95;5.57;;;;;;;;;;5083376;28;20222;-46
2023/09/02 06:29:34;;;;;;;9.88;5.57;;;;;;;;;;5088980;28;20258;-46
2023/09/02 06:32:02;;;;;;;8.93;5.28;;;;;;;;;;5094862;28;20706;-46
2023/09/02 06:34:29;;;;;;;9.05;5.28;;;;;;;;;;5095040;28;20218;-46
2023/09/02 06:36:56;;;;;;;8.57;5.15;;;;;;;;;;5094694;28;20573;-46
2023/09/02 06:39:23;;;;;;;9.95;5.65;;;;;;;;;;5094267;28;20264;-44
2023/09/02 06:41:51;;;;;;;9.65;5.13;;;;;;;;;;5094314;28;20218;-44
2023/09/02 06:44:24;;;;;;;9.85;5.10;;;;;;;;;;5093532;28;20223;-46
2023/09/02 06:46:51;;;;;;;11.00;5.25;;;;;;;;;;5091466;28;20214;-45
2023/09/02 06:49:18;;;;;;;10.75;5.43;;;;;;;;;;5085071;28;20252;-46
2023/09/02 06:51:46;;;;;;;9.80;6.30;;;;;;;;;;5078819;28;20219;-44
2023/09/02 06:54:13;;;;;;;10.20;5.05;;;;;;;;;;5082355;28;20324;-46
2023/09/02 06:56:40;;;;;;;11.30;6.05;;;;;;;;;;5077612;28;20214;-44
2023/09/02 06:59:07;;;;;;;11.55;6.40;;;;;;;;;;5077567;28;20243;-44
2023/09/02 07:01:34;;;;;;;10.80;5.63;;;;;;;;;;5074063;28;20234;-46
2023/09/02 07:04:01;;;;;;;11.20;5.53;;;;;;;;;;5073277;28;20234;-45
2023/09/02 07:06:29;;;;;;;10.32;5.43;;;;;;;;;;5074000;28;20226;-46
2023/09/02 07:08:56;;;;;;;13.65;5.82;;;;;;;;;;5076391;28;20226;-45
2023/09/02 07:11:23;;;;;;;8.25;5.38;;;;;;;;;;5094321;28;20245;-45
2023/09/02 07:13:50;;;;;;;10.95;4.78;;;;;;;;;;5094197;28;20247;-45
2023/09/02 07:16:17;;;;;;;10.27;5.22;;;;;;;;;;5094282;28;20698;-43
2023/09/02 07:18:45;;;;;;;8.15;4.55;;;;;;;;;;5093857;28;20227;-47
2023/09/02 07:21:12;;;;;;;10.38;4.88;;;;;;;;;;5093995;28;20218;-45
2023/09/02 07:23:39;;;;;;;6.85;4.22;;;;;;;;;;5093018;28;20642;-45
2023/09/02 07:26:06;;;;;;;6.88;4.07;;;;;;;;;;5093966;28;20241;-46
2023/09/02 07:28:36;;;;;;;8.35;4.30;;;;;;;;;;5093729;28;20225;-47
2023/09/02 07:31:07;;;;;;;7.35;3.88;;;;;;;;;;5093995;28;20235;-46
2023/09/02 07:33:34;;;;;;;7.47;4.15;;;;;;;;;;5093755;28;20222;-46
2023/09/02 07:36:12;;;;;;;9.30;4.20;;;;;;;;;;5093747;28;20230;-48
2023/09/02 07:38:40;;;;;;;10.18;3.85;;;;;;;;;;5092462;28;20341;-46
2023/09/02 07:41:09;;;;;;;6.30;3.60;;;;;;;;;;5073332;28;20234;-44
2023/09/02 07:43:36;;;;;;;8.35;4.28;;;;;;;;;;5073320;28;20223;-45
2023/09/02 07:46:04;;;;;;;10.68;3.72;;;;;;;;;;5073062;28;20241;-47
2023/09/02 07:48:31;;;;;;;6.65;3.75;;;;;;;;;;5073633;28;20231;-45
2023/09/02 07:51:00;;;;;;;7.13;3.55;;;;;;;;;;5073278;28;20235;-44
2023/09/02 07:53:28;;;;;;;7.55;3.50;;;;;;;;;;5072217;28;20219;-43
2023/09/02 07:55:55;;;;;;;5.50;3.63;;;;;;;;;;5071622;28;20231;-46
2023/09/02 07:58:22;;;;;;;5.55;3.33;;;;;;;;;;5073193;28;20234;-43
2023/09/02 08:00:50;;;;;;;5.30;3.42;;;;;;;;;;5072466;28;20238;-45
2023/09/02 08:03:17;;;;;;;10.23;3.88;;;;;;;;;;5073301;28;20219;-44
2023/09/02 08:05:45;;;;;;;8.00;4.22;;;;;;;;;;5072132;28;20226;-44
2023/09/02 08:08:13;;;;;;;7.13;3.97;;;;;;;;;;5085047;28;20218;-44
2023/09/02 08:10:41;;;;;;;10.05;4.43;;;;;;;;;;5092699;28;20242;-46
2023/09/02 08:13:09;;;;;;;8.68;4.18;;;;;;;;;;5077395;28;20269;-48
2023/09/02 08:15:38;;;;;;;7.60;4.00;;;;;;;;;;5072752;28;20227;-47
2023/09/02 08:18:05;;;;;;;7.50;4.07;;;;;;;;;;5072124;28;20284;-49
2023/09/02 08:20:35;;;;;;;5.30;3.75;;;;;;;;;;5072765;28;20356;-47
2023/09/02 08:23:02;;;;;;;6.55;3.55;;;;;;;;;;5071660;28;20215;-47
2023/09/02 08:25:30;;;;;;;6.32;3.38;;;;;;;;;;5072774;28;20272;-47
2023/09/02 08:27:57;;;;;;;11.75;3.88;;;;;;;;;;5072141;28;20219;-46
2023/09/02 08:30:24;;;;;;;6.80;3.75;;;;;;;;;;5072607;28;20246;-48
2023/09/02 08:32:51;;;;;;;6.68;4.03;;;;;;;;;;5075137;28;20223;-45
2023/09/02 08:35:19;;;;;;;5.82;3.70;;;;;;;;;;5092118;28;20714;-48
2023/09/02 08:37:46;;;;;;;9.38;3.80;;;;;;;;;;5091685;28;20744;-46
2023/09/02 08:40:14;;;;;;;5.57;3.63;;;;;;;;;;5092537;28;20767;-47
2023/09/02 08:42:41;;;;;;;6.28;3.80;;;;;;;;;;5092326;28;20233;-47
2023/09/02 08:45:09;;;;;;;10.35;3.90;;;;;;;;;;5092243;28;20222;-48
2023/09/02 08:47:39;;;;;;;5.55;3.30;;;;;;;;;;5092046;28;20226;-46
2023/09/02 08:50:08;;;;;;;9.52;3.05;;;;;;;;;;5092700;28;20238;-47
2023/09/02 08:52:35;;;;;;;7.53;3.55;;;;;;;;;;5092004;28;20226;-47
2023/09/02 08:55:03;;;;;;;5.72;3.28;;;;;;;;;;5092387;28;20727;-47
2023/09/02 08:57:32;;;;;;;8.75;3.58;;;;;;;;;;5091917;28;20230;-46
2023/09/02 08:59:59;;;;;;;5.45;2.78;;;;;;;;;;5092574;28;20214;-46
2023/09/02 09:02:27;;;;;;;7.15;3.17;;;;;;;;;;5092252;28;20234;-46
2023/09/02 09:04:58;;;;;;;6.30;3.50;;;;;;;;;;5077253;28;20219;-47
2023/09/02 09:07:26;;;;;;;7.07;3.30;;;;;;;;;;5073850;28;20227;-47
2023/09/02 09:09:56;;;;;;;5.72;3.45;;;;;;;;;;5085090;28;20721;-48
2023/09/02 09:12:24;;;;;;;7.07;3.42;;;;;;;;;;5095976;28;20223;-46
2023/09/02 09:14:53;;;;;;;6.95;3.38;;;;;;;;;;5096113;28;20218;-47
2023/09/02 09:17:21;;;;;;;6.53;3.95;;;;;;;;;;5094677;28;20242;-49
2023/09/02 09:19:49;;;;;;;9.50;3.15;;;;;;;;;;5096224;28;20301;-48
2023/09/02 09:22:16;;;;;;;5.47;3.05;;;;;;;;;;5093992;28;20222;-48
2023/09/02 09:24:43;;;;;;;5.45;3.33;;;;;;;;;;5095942;28;20711;-44
2023/09/02 09:27:10;;;;;;;9.85;2.97;;;;;;;;;;5096185;28;20694;-44
2023/09/02 09:29:41;;;;;;;7.63;3.58;;;;;;;;;;5095929;28;20595;-44
2023/09/02 09:32:13;;;;;;;6.32;3.22;;;;;;;;;;5096205;28;20253;-44
2023/09/02 09:34:42;;;;;;;5.88;2.92;;;;;;;;;;5096011;28;20219;-44
2023/09/02 09:37:09;;;;;;;9.45;2.80;;;;;;;;;;5094279;28;20320;-47
2023/09/02 09:39:42;;;;;;;7.43;3.72;;;;;;;;;;5094377;28;20237;-47
2023/09/02 09:42:12;;;;;;;12.85;3.30;;;;;;;;;;5095414;28;20237;-44
2023/09/02 09:45:06;;;;;;;5.43;3.35;;;;;;;;;;5095597;28;20299;-46
2023/09/02 09:47:33;;;;;;;5.95;3.28;;;;;;;;;;5094234;28;20706;-46
2023/09/02 09:50:14;;;;;;;5.80;3.10;;;;;;;;;;5079234;28;20691;-45
2023/09/02 09:53:04;;;;;;;6.22;3.03;;;;;;;;;;5085148;28;20215;-46
2023/09/02 09:55:33;;;;;;;9.70;3.85;;;;;;;;;;5084669;28;20223;-46
2023/09/02 09:58:00;;;;;;;6.70;3.20;;;;;;;;;;5083791;28;20690;-45
2023/09/02 10:00:29;;;;;;;7.25;3.00;;;;;;;;;;5084150;28;20223;-44
2023/09/02 10:02:57;;;;;;;5.65;3.40;;;;;;;;;;5086031;28;20237;-45
2023/09/02 10:05:29;;;;;;;4.72;2.65;;;;;;;;;;5086133;28;20232;-45
2023/09/02 10:08:07;;;;;;;4.97;1.98;;;;;;;;;;5085069;28;20624;-48
2023/09/02 10:10:38;;;;;;;4.57;2.30;;;;;;;;;;5084457;28;20222;-49
2023/09/02 10:13:06;;;;;;;7.63;2.08;;;;;;;;;;5085074;28;20287;-44
2023/09/02 10:15:33;;;;;;;5.80;2.03;;;;;;;;;;5085321;28;20195;-46
2023/09/02 10:18:02;;;;;;;6.68;2.17;;;;;;;;;;5085049;28;20195;-47
2023/09/02 10:20:31;;;;;;;4.00;2.20;;;;;;;;;;5084513;28;20218;-45
2023/09/02 10:23:09;;;;;;;5.32;2.33;;;;;;;;;;5082455;28;20186;-46
2023/09/02 10:26:06;;;;;;;4.95;2.40;;;;;;;;;;5085047;28;20183;-46
2023/09/02 10:28:41;;;;;;;9.07;2.22;;;;;;;;;;5083025;28;20581;-47
2023/09/02 10:31:22;;;;;;;4.10;2.60;;;;;;;;;;5084007;28;20214;-45
2023/09/02 10:34:01;;;;;;;4.90;2.30;;;;;;;;;;5083903;28;20696;-47
2023/09/02 10:36:32;;;;;;;4.93;2.80;;;;;;;;;;5084617;28;20195;-48
2023/09/02 10:39:02;;;;;;;7.25;2.95;;;;;;;;;;5084570;28;20263;-47
2023/09/02 10:41:30;;;;;;;8.15;2.72;;;;;;;;;;5085479;28;20667;-48
2023/09/02 10:43:58;;;;;;;5.50;3.00;;;;;;;;;;5082758;28;20195;-45
2023/09/02 10:46:26;;;;;;;11.43;3.60;;;;;;;;;;5077966;28;20191;-48
2023/09/02 10:48:53;;;;;;;14.30;3.90;;;;;;;;;;5081725;28;20203;-48
2023/09/02 10:51:21;;;;;;;7.55;3.25;;;;;;;;;;5083665;28;20230;-47
2023/09/02 10:53:48;;;;;;;4.40;3.40;;;;;;;;;;5086313;28;20663;-47
2023/09/02 10:56:29;;;;;;;5.53;3.40;;;;;;;;;;5084245;28;20215;-47
2023/09/02 10:58:57;;;;;;;4.75;3.20;;;;;;;;;;5084492;28;20186;-49
2023/09/02 11:01:25;;;;;;;8.50;3.53;;;;;;;;;;5084552;28;20195;-47
2023/09/02 11:03:54;;;;;;;6.47;3.40;;;;;;;;;;5083370;28;20649;-46
2023/09/02 11:06:21;;;;;;;8.02;3.58;;;;;;;;;;5084287;28;20285;-47
2023/09/02 11:08:50;;;;;;;5.38;3.35;;;;;;;;;;5082843;28;20354;-46
2023/09/02 11:11:18;;;;;;;4.90;3.38;;;;;;;;;;5082523;28;20211;-47
2023/09/02 11:14:07;;;;;;;5.20;3.33;;;;;;;;;;5082472;28;20331;-46
2023/09/02 11:16:38;;;;;;;4.70;3.00;;;;;;;;;;5083463;28;20217;-47
2023/09/02 11:19:08;;;;;;;10.55;3.63;;;;;;;;;;5082117;28;20282;-47
2023/09/02 11:21:42;;;;;;;7.00;3.53;;;;;;;;;;5083666;28;20199;-46
2023/09/02 11:24:13;;;;;;;5.65;3.38;;;;;;;;;;5084315;28;20244;-47
2023/09/02 11:26:53;;;;;;;5.07;2.58;;;;;;;;;;5084484;28;20203;-50
2023/09/02 11:29:24;;;;;;;7.35;2.83;;;;;;;;;;5081295;28;20199;-48
2023/09/02 11:32:05;;;;;;;3.45;2.42;;;;;;;;;;5072540;28;20219;-48
2023/09/02 11:34:32;;;;;;;4.47;2.47;;;;;;;;;;5073725;28;20211;-49
2023/09/02 11:37:01;;;;;;;5.43;2.65;;;;;;;;;;5078665;28;20199;-47
2023/09/02 11:39:29;;;;;;;3.67;1.90;;;;;;;;;;5083509;28;20203;-48
2023/09/02 11:42:10;;;;;;;2.92;2.10;;;;;;;;;;5082012;28;20710;-46
2023/09/02 11:44:38;;;;;;;4.40;2.10;;;;;;;;;;5081168;28;20668;-47
2023/09/02 11:47:05;;;;;;;4.22;2.10;;;;;;;;;;5082959;28;20533;-48
2023/09/02 11:49:35;;;;;;;8.48;2.30;;;;;;;;;;5084221;28;20201;-48
2023/09/02 11:52:02;;;;;;;3.97;2.00;;;;;;;;;;5083975;28;20272;-48
2023/09/02 11:54:29;;;;;;;4.68;2.10;;;;;;;;;;5083846;28;20640;-46
2023/09/02 11:56:58;;;;;;;5.97;2.45;;;;;;;;;;5081706;28;20666;-47
2023/09/02 11:59:25;;;;;;;4.38;1.80;;;;;;;;;;5083058;28;20195;-47
2023/09/02 12:02:16;;;;;;;4.13;1.70;;;;;;;;;;5078474;28;20648;-46
2023/09/02 12:04:47;;;;;;;4.63;1.65;;;;;;;;;;5072471;28;20210;-47
2023/09/02 12:07:17;;;;;;;2.75;1.70;;;;;;;;;;5071765;28;20200;-48
2023/09/02 12:09:44;;;;;;;2.83;1.33;;;;;;;;;;5075945;28;20281;-46
2023/09/02 12:12:12;;;;;;;3.63;1.52;;;;;;;;;;5077732;28;20222;-47
2023/09/02 12:14:40;;;;;;;4.95;1.52;;;;;;;;;;5083710;28;20676;-46
2023/09/02 12:17:08;;;;;;;3.17;1.63;;;;;;;;;;5089250;28;20219;-49
2023/09/02 12:19:35;;;;;;;3.50;1.60;;;;;;;;;;5090374;28;20264;-46
2023/09/02 12:22:03;;;;;;;3.88;1.58;;;;;;;;;;5088775;28;20710;-47
2023/09/02 12:24:30;;;;;;;4.40;1.88;;;;;;;;;;5089622;28;20242;-45
2023/09/02 12:26:58;;;;;;;2.28;1.60;;;;;;;;;;5082762;28;20235;-48
2023/09/02 12:29:25;;;;;;;4.75;1.50;;;;;;;;;;5080756;28;20549;-46
2023/09/02 12:31:56;;;;;;;3.65;1.60;;;;;;;;;;5085241;28;20238;-44
2023/09/02 12:34:25;;;;;;;7.45;1.98;;;;;;;;;;5089257;28;20705;-46
2023/09/02 12:36:52;;;;;;;3.22;1.52;;;;;;;;;;5082735;28;20223;-45
2023/09/02 12:39:28;;;;;;;3.58;1.73;;;;;;;;;;5070927;28;20706;-44
2023/09/02 12:41:56;;;;;;;2.15;1.40;;;;;;;;;;5084861;28;20859;-48
2023/09/02 12:44:23;;;;;;;6.63;2.00;;;;;;;;;;5073157;28;20691;-48
2023/09/02 12:46:50;;;;;;;4.05;1.40;;;;;;;;;;5071561;28;20568;-49
2023/09/02 12:49:18;;;;;;;2.97;1.52;;;;;;;;;;5071297;28;20211;-47
2023/09/02 12:51:45;;;;;;;3.15;1.50;;;;;;;;;;5071823;28;20600;-47
2023/09/02 12:54:13;;;;;;;4.68;1.52;;;;;;;;;;5071861;28;20223;-47
2023/09/02 12:56:41;;;;;;;2.78;1.67;;;;;;;;;;5074847;28;20235;-46
2023/09/02 12:59:07;;;;;;;2.17;1.30;;;;;;;;;;5071480;28;20226;-46
2023/09/02 13:01:37;;;;;;;2.85;1.65;;;;;;;;;;5071477;28;20242;-46
2023/09/02 13:04:05;;;;;;;2.80;1.60;;;;;;;;;;5071298;28;20227;-47
2023/09/02 13:06:32;;;;;;;3.67;1.58;;;;;;;;;;5070583;28;20229;-47
2023/09/02 13:08:59;;;;;;;3.75;1.52;;;;;;;;;;5075707;28;20582;-47
2023/09/02 13:11:27;;;;;;;2.58;1.50;;;;;;;;;;5083370;28;20231;-49
2023/09/02 13:13:54;;;;;;;2.55;1.60;;;;;;;;;;5071757;28;20691;-47
2023/09/02 13:16:21;;;;;;;3.25;1.48;;;;;;;;;;5071443;28;20896;-46
2023/09/02 13:18:49;;;;;;;2.25;1.67;;;;;;;;;;5084602;28;20230;-44
2023/09/02 13:21:16;;;;;;;7.70;1.52;;;;;;;;;;5077099;28;20223;-45
2023/09/02 13:23:43;;;;;;;6.07;1.92;;;;;;;;;;5071441;28;20342;-45
2023/09/02 13:26:17;;;;;;;3.78;1.50;;;;;;;;;;5070745;28;20223;-47
2023/09/02 13:28:44;;;;;;;4.25;1.75;;;;;;;;;;5072404;28;20224;-46
2023/09/02 13:31:12;;;;;;;5.28;1.58;;;;;;;;;;5086648;28;20234;-46
2023/09/02 13:33:43;;;;;;;3.17;1.77;;;;;;;;;;5070164;28;20683;-46
2023/09/02 13:36:12;;;;;;;3.70;1.65;;;;;;;;;;5071174;28;20219;-47
2023/09/02 13:38:40;;;;;;;2.65;1.30;;;;;;;;;;5087550;28;20227;-48
2023/09/02 13:41:09;;;;;;;2.63;1.50;;;;;;;;;;5070343;28;20228;-47
2023/09/02 13:43:37;;;;;;;5.80;1.60;;;;;;;;;;5070057;28;22981;-47
2023/09/02 13:46:09;;;;;;;2.67;1.50;;;;;;;;;;5071401;28;20215;-47
2023/09/02 13:48:36;;;;;;;2.13;1.27;;;;;;;;;;5070879;28;20227;-46
2023/09/02 13:51:04;;;;;;;5.55;1.58;;;;;;;;;;5074094;28;20250;-47
2023/09/02 13:53:34;;;;;;;2.60;1.55;;;;;;;;;;5087718;28;20220;-47
2023/09/02 13:56:02;;;;;;;3.50;1.60;;;;;;;;;;5083707;28;20219;-46
2023/09/02 13:58:34;;;;;;;4.38;1.50;;;;;;;;;;5080778;28;20292;-47
2023/09/02 14:01:02;;;;;;;2.35;1.40;;;;;;;;;;5074680;28;20589;-46
2023/09/02 14:03:30;;;;;;;4.70;1.58;;;;;;;;;;5075076;28;20253;-47
2023/09/02 14:06:00;;;;;;;4.30;1.85;;;;;;;;;;5075230;28;20222;-50
2023/09/02 14:08:35;;;;;;;4.55;1.33;;;;;;;;;;5086502;28;20249;-46
2023/09/02 14:11:03;;;;;;;4.53;1.90;;;;;;;;;;5094462;28;20237;-45
2023/09/02 14:13:37;;;;;;;1.85;1.30;;;;;;;;;;5094753;28;20226;-48
2023/09/02 14:16:05;;;;;;;3.92;1.50;;;;;;;;;;5094865;28;20230;-46
2023/09/02 14:18:32;;;;;;;3.33;1.30;;;;;;;;;;5092979;28;20585;-44
2023/09/02 14:20:59;;;;;;;4.90;1.45;;;;;;;;;;5093652;28;20241;-43
2023/09/02 14:23:26;;;;;;;4.00;1.50;;;;;;;;;;5093429;28;20241;-44
2023/09/02 14:25:54;;;;;;;2.97;1.30;;;;;;;;;;5093414;28;20234;-46
2023/09/02 14:28:21;;;;;;;3.53;1.58;;;;;;;;;;5094065;28;20243;-46
2023/09/02 14:30:48;;;;;;;2.67;1.60;;;;;;;;;;5094529;28;20229;-44
2023/09/02 14:33:16;;;;;;;3.55;1.80;;;;;;;;;;5093942;28;20314;-45
2023/09/02 14:35:44;;;;;;;4.45;1.88;;;;;;;;;;5094452;28;20230;-47
2023/09/02 14:38:11;;;;;;;3.92;1.70;;;;;;;;;;5089685;28;20620;-46
2023/09/02 14:40:38;;;;;;;4.78;1.52;;;;;;;;;;5088350;28;20273;-46
2023/09/02 14:43:05;;;;;;;2.85;1.50;;;;;;;;;;5087917;28;20238;-47
2023/09/02 14:45:32;;;;;;;4.07;1.60;;;;;;;;;;5074116;28;20337;-48
2023/09/02 14:48:00;;;;;;;3.78;1.80;;;;;;;;;;5086289;28;20419;-48
2023/09/02 14:50:28;;;;;;;1.75;1.10;;;;;;;;;;5073589;28;20238;-48